Time,TemperatureF,DewpointF,PressureIn,WindDirection,WindDirectionDegrees,WindSpeedMPH,WindSpeedGustMPH,Humidity,HourlyPrecipIn,Conditions,Clouds,dailyrainin,SoftwareType,DateUTC
2013-06-12 00:02:00,53.1,51.4,29.67,North,0,5.0,8.0,94,0.02,,,0.52,meteohub,2013-06-11 23:02:00,
2013-06-12 00:07:00,52.7,51.1,29.66,NNE,22,4.0,8.0,94,0.02,,,0.00,meteohub,2013-06-11 23:07:00,
2013-06-12 00:17:00,52.3,50.7,29.66,NNE,31,10.0,11.0,94,0.01,,,0.00,meteohub,2013-06-11 23:17:00,
2013-06-12 00:22:00,52.3,50.7,29.65,NE,40,1.0,10.0,94,0.01,,,0.00,meteohub,2013-06-11 23:22:00,
2013-06-12 00:27:00,52.3,50.7,29.66,NE,40,0.0,10.0,94,0.00,,,0.00,meteohub,2013-06-11 23:27:00,
2013-06-12 00:37:00,52.3,50.7,29.66,NE,44,5.0,6.0,94,0.00,,,0.00,meteohub,2013-06-11 23:37:00,
2013-06-12 00:47:00,52.2,50.5,29.66,NNE,14,1.0,8.0,94,0.00,,,0.00,meteohub,2013-06-11 23:47:00,
2013-06-12 00:52:00,52.2,50.5,29.66,North,10,0.0,8.0,94,0.00,,,0.00,meteohub,2013-06-11 23:52:00,
2013-06-12 00:57:00,52.2,50.5,29.66,North,9,2.0,8.0,94,0.00,,,0.00,meteohub,2013-06-11 23:57:00,
2013-06-12 01:02:00,52.0,50.4,29.66,North,9,0.0,6.0,94,0.00,,,0.00,meteohub,2013-06-12 00:02:00,
2013-06-12 01:07:00,52.0,50.4,29.66,North,9,0.0,6.0,94,0.00,,,0.00,meteohub,2013-06-12 00:07:00,
2013-06-12 01:12:00,51.8,50.2,29.66,North,9,0.0,5.0,94,0.00,,,0.00,meteohub,2013-06-12 00:12:00,
2013-06-12 01:17:00,51.8,50.2,29.66,North,9,0.0,5.0,94,0.00,,,0.00,meteohub,2013-06-12 00:17:00,
2013-06-12 01:22:00,52.0,50.4,29.66,NNW,343,4.0,5.0,94,0.00,,,0.00,meteohub,2013-06-12 00:22:00,
2013-06-12 01:32:00,51.8,50.2,29.66,NNW,343,1.0,6.0,94,0.00,,,0.00,meteohub,2013-06-12 00:32:00,
2013-06-12 01:37:00,51.6,50.0,29.66,NNW,343,2.0,6.0,94,0.00,,,0.00,meteohub,2013-06-12 00:37:00,
2013-06-12 01:42:00,51.6,50.0,29.66,NNW,343,1.0,6.0,94,0.00,,,0.00,meteohub,2013-06-12 00:42:00,
2013-06-12 01:47:00,51.4,49.8,29.67,NNW,343,4.0,6.0,94,0.00,,,0.00,meteohub,2013-06-12 00:47:00,
2013-06-12 01:52:00,51.4,49.8,29.67,NNW,327,2.0,6.0,94,0.00,,,0.00,meteohub,2013-06-12 00:52:00,
2013-06-12 02:02:00,51.4,49.8,29.67,NW,315,5.0,6.0,94,0.01,,,0.01,meteohub,2013-06-12 01:02:00,
2013-06-12 02:07:00,51.3,49.6,29.67,NNW,333,6.0,6.0,94,0.01,,,0.01,meteohub,2013-06-12 01:07:00,
2013-06-12 02:17:00,50.9,49.3,29.67,NNW,338,5.0,9.0,94,0.01,,,0.01,meteohub,2013-06-12 01:17:00,
2013-06-12 02:27:00,50.7,49.1,29.68,NW,319,4.0,9.0,94,0.01,,,0.01,meteohub,2013-06-12 01:27:00,
2013-06-12 02:32:00,50.7,49.1,29.67,NNW,331,4.0,9.0,94,0.01,,,0.01,meteohub,2013-06-12 01:32:00,
2013-06-12 02:37:00,50.5,48.9,29.67,NNW,348,6.0,9.0,94,0.01,,,0.01,meteohub,2013-06-12 01:37:00,
2013-06-12 02:42:00,50.4,48.7,29.68,NW,326,4.0,9.0,94,0.01,,,0.01,meteohub,2013-06-12 01:42:00,
2013-06-12 02:47:00,50.4,48.7,29.67,NW,323,5.0,9.0,94,0.01,,,0.01,meteohub,2013-06-12 01:47:00,
2013-06-12 02:52:00,50.2,48.6,29.67,North,355,2.0,9.0,94,0.01,,,0.01,meteohub,2013-06-12 01:52:00,
2013-06-12 02:57:00,50.0,48.4,29.67,North,350,1.0,8.0,94,0.00,,,0.01,meteohub,2013-06-12 01:57:00,
2013-06-12 03:07:00,49.8,48.4,29.67,North,350,2.0,6.0,95,0.00,,,0.01,meteohub,2013-06-12 02:07:00,
2013-06-12 03:17:00,49.6,48.0,29.68,North,350,1.0,6.0,94,0.00,,,0.01,meteohub,2013-06-12 02:17:00,
2013-06-12 03:22:00,49.6,48.2,29.67,North,350,1.0,6.0,95,0.00,,,0.01,meteohub,2013-06-12 02:22:00,
2013-06-12 03:27:00,49.5,48.0,29.68,North,350,1.0,6.0,95,0.00,,,0.01,meteohub,2013-06-12 02:27:00,
2013-06-12 03:32:00,49.5,48.0,29.68,NNW,345,2.0,4.0,95,0.00,,,0.01,meteohub,2013-06-12 02:32:00,
2013-06-12 03:37:00,49.5,48.0,29.68,NNW,342,5.0,9.0,95,0.00,,,0.01,meteohub,2013-06-12 02:37:00,
2013-06-12 03:47:00,49.5,48.0,29.68,NW,324,4.0,9.0,95,0.00,,,0.01,meteohub,2013-06-12 02:47:00,
2013-06-12 03:52:00,49.5,48.0,29.68,NW,324,1.0,8.0,95,0.00,,,0.01,meteohub,2013-06-12 02:52:00,
2013-06-12 03:57:00,49.5,48.0,29.68,NW,324,4.0,8.0,95,0.00,,,0.01,meteohub,2013-06-12 02:57:00,
2013-06-12 04:02:00,49.3,47.8,29.68,NW,324,0.0,5.0,95,0.00,,,0.01,meteohub,2013-06-12 03:02:00,
2013-06-12 04:07:00,49.3,47.8,29.69,NW,318,2.0,4.0,95,0.00,,,0.01,meteohub,2013-06-12 03:07:00,
2013-06-12 04:17:00,49.3,47.8,29.69,NW,318,1.0,5.0,95,0.00,,,0.01,meteohub,2013-06-12 03:17:00,
2013-06-12 04:22:00,49.3,47.8,29.69,NW,318,0.0,4.0,95,0.00,,,0.01,meteohub,2013-06-12 03:22:00,
2013-06-12 04:27:00,49.3,47.8,29.69,NW,318,0.0,4.0,95,0.00,,,0.01,meteohub,2013-06-12 03:27:00,
2013-06-12 04:32:00,49.3,47.8,29.70,NW,318,0.0,2.0,95,0.00,,,0.01,meteohub,2013-06-12 03:32:00,
2013-06-12 04:37:00,49.5,48.0,29.70,NW,318,0.0,0.0,95,0.00,,,0.01,meteohub,2013-06-12 03:37:00,
2013-06-12 04:42:00,49.5,48.0,29.70,NW,318,0.0,0.0,95,0.00,,,0.01,meteohub,2013-06-12 03:42:00,
2013-06-12 04:47:00,49.5,48.0,29.70,NW,318,0.0,0.0,95,0.00,,,0.01,meteohub,2013-06-12 03:47:00,
2013-06-12 04:52:00,49.5,48.0,29.70,NW,318,0.0,0.0,95,0.00,,,0.01,meteohub,2013-06-12 03:52:00,
2013-06-12 04:57:00,49.1,47.7,29.69,NW,318,0.0,0.0,95,0.00,,,0.01,meteohub,2013-06-12 03:57:00,
2013-06-12 05:02:00,48.9,47.5,29.70,NW,318,0.0,0.0,95,0.00,,,0.01,meteohub,2013-06-12 04:02:00,
2013-06-12 05:12:00,48.9,47.5,29.70,NW,318,0.0,0.0,95,0.00,,,0.01,meteohub,2013-06-12 04:12:00,
2013-06-12 05:17:00,48.9,47.5,29.70,NW,318,0.0,0.0,95,0.00,,,0.01,meteohub,2013-06-12 04:17:00,
2013-06-12 05:22:00,48.7,47.3,29.70,NW,318,0.0,0.0,95,0.00,,,0.01,meteohub,2013-06-12 04:22:00,
2013-06-12 05:27:00,48.6,47.1,29.70,NW,318,0.0,0.0,95,0.00,,,0.01,meteohub,2013-06-12 04:27:00,
2013-06-12 05:32:00,48.2,46.8,29.70,NW,318,0.0,0.0,95,0.00,,,0.01,meteohub,2013-06-12 04:32:00,
2013-06-12 05:37:00,47.8,46.4,29.70,NW,318,0.0,0.0,95,0.00,,,0.01,meteohub,2013-06-12 04:37:00,
2013-06-12 05:42:00,47.8,46.4,29.70,NW,318,0.0,0.0,95,0.00,,,0.01,meteohub,2013-06-12 04:42:00,
2013-06-12 05:47:00,47.8,46.4,29.70,NW,318,0.0,0.0,95,0.00,,,0.01,meteohub,2013-06-12 04:47:00,
2013-06-12 05:52:00,47.8,46.4,29.70,NW,318,0.0,0.0,95,0.00,,,0.01,meteohub,2013-06-12 04:52:00,
2013-06-12 05:57:00,47.8,46.8,29.70,NW,318,0.0,0.0,96,0.00,,,0.01,meteohub,2013-06-12 04:57:00,
2013-06-12 06:02:00,47.8,46.8,29.71,NW,318,0.0,0.0,96,0.00,,,0.01,meteohub,2013-06-12 05:02:00,
2013-06-12 06:07:00,48.0,46.9,29.71,NW,318,0.0,0.0,96,0.00,,,0.01,meteohub,2013-06-12 05:07:00,
2013-06-12 06:12:00,48.0,46.9,29.71,NW,318,0.0,0.0,96,0.00,,,0.01,meteohub,2013-06-12 05:12:00,
2013-06-12 06:17:00,48.2,47.1,29.71,NW,318,0.0,0.0,96,0.00,,,0.01,meteohub,2013-06-12 05:17:00,
2013-06-12 06:27:00,49.1,48.0,29.71,NW,318,0.0,0.0,96,0.00,,,0.01,meteohub,2013-06-12 05:27:00,
2013-06-12 06:37:00,50.2,49.1,29.71,NW,318,0.0,0.0,96,0.00,,,0.01,meteohub,2013-06-12 05:37:00,
2013-06-12 06:42:00,50.2,49.1,29.72,NW,318,0.0,0.0,96,0.00,,,0.01,meteohub,2013-06-12 05:42:00,
2013-06-12 06:47:00,50.2,49.1,29.72,NW,318,0.0,0.0,96,0.00,,,0.01,meteohub,2013-06-12 05:47:00,
2013-06-12 06:52:00,50.2,49.1,29.72,NW,318,0.0,0.0,96,0.00,,,0.01,meteohub,2013-06-12 05:52:00,
2013-06-12 06:57:00,50.4,49.3,29.72,NW,318,0.0,0.0,96,0.00,,,0.01,meteohub,2013-06-12 05:57:00,
2013-06-12 07:07:00,50.5,49.5,29.72,NW,318,0.0,0.0,96,0.00,,,0.01,meteohub,2013-06-12 06:07:00,
2013-06-12 07:12:00,50.5,49.5,29.72,NW,318,0.0,0.0,96,0.00,,,0.01,meteohub,2013-06-12 06:12:00,
2013-06-12 07:17:00,50.7,49.6,29.72,NW,318,0.0,0.0,96,0.00,,,0.01,meteohub,2013-06-12 06:17:00,
2013-06-12 07:22:00,51.1,50.0,29.72,NW,318,0.0,0.0,96,0.00,,,0.01,meteohub,2013-06-12 06:22:00,
2013-06-12 07:27:00,51.3,50.2,29.72,NW,318,0.0,0.0,96,0.00,,,0.01,meteohub,2013-06-12 06:27:00,
2013-06-12 07:32:00,51.4,50.4,29.72,NW,318,0.0,0.0,96,0.00,,,0.01,meteohub,2013-06-12 06:32:00,
2013-06-12 07:37:00,51.6,50.5,29.72,NW,318,0.0,0.0,96,0.00,,,0.01,meteohub,2013-06-12 06:37:00,
2013-06-12 07:42:00,52.0,50.5,29.73,NW,318,0.0,0.0,95,0.00,,,0.01,meteohub,2013-06-12 06:42:00,
2013-06-12 07:47:00,52.2,50.7,29.73,NW,318,0.0,0.0,95,0.00,,,0.01,meteohub,2013-06-12 06:47:00,
2013-06-12 07:52:00,52.5,50.9,29.73,NW,318,0.0,0.0,94,0.00,,,0.01,meteohub,2013-06-12 06:52:00,
2013-06-12 07:57:00,52.5,50.9,29.73,NW,318,0.0,0.0,94,0.00,,,0.01,meteohub,2013-06-12 06:57:00,
2013-06-12 08:02:00,52.9,51.3,29.72,NW,318,0.0,0.0,94,0.00,,,0.01,meteohub,2013-06-12 07:02:00,
2013-06-12 08:07:00,52.9,50.9,29.72,NW,318,1.0,2.0,93,0.00,,,0.01,meteohub,2013-06-12 07:07:00,
2013-06-12 08:12:00,53.1,51.1,29.73,NW,318,0.0,5.0,93,0.00,,,0.01,meteohub,2013-06-12 07:12:00,
2013-06-12 08:17:00,53.2,50.4,29.73,NW,318,0.0,5.0,90,0.00,,,0.01,meteohub,2013-06-12 07:17:00,
2013-06-12 08:22:00,53.6,50.7,29.73,NW,318,0.0,5.0,90,0.00,,,0.01,meteohub,2013-06-12 07:22:00,
2013-06-12 08:27:00,54.3,50.9,29.73,NW,318,0.0,2.0,88,0.00,,,0.01,meteohub,2013-06-12 07:27:00,
2013-06-12 08:32:00,54.5,50.4,29.73,NW,318,0.0,5.0,86,0.00,,,0.01,meteohub,2013-06-12 07:32:00,
2013-06-12 08:37:00,54.7,50.2,29.73,North,351,0.0,5.0,85,0.00,,,0.01,meteohub,2013-06-12 07:37:00,
2013-06-12 08:42:00,54.5,49.8,29.73,North,0,0.0,6.0,84,0.00,,,0.01,meteohub,2013-06-12 07:42:00,
2013-06-12 08:47:00,54.7,50.0,29.73,North,0,1.0,6.0,84,0.00,,,0.01,meteohub,2013-06-12 07:47:00,
2013-06-12 08:52:00,54.7,50.0,29.73,North,0,0.0,6.0,84,0.00,,,0.01,meteohub,2013-06-12 07:52:00,
2013-06-12 08:57:00,54.9,50.4,29.73,North,0,2.0,5.0,85,0.00,,,0.01,meteohub,2013-06-12 07:57:00,
2013-06-12 09:02:00,55.0,49.6,29.73,North,0,2.0,4.0,82,0.00,,,0.01,meteohub,2013-06-12 08:02:00,
2013-06-12 09:07:00,55.6,49.8,29.73,North,350,2.0,5.0,81,0.00,,,0.01,meteohub,2013-06-12 08:07:00,
2013-06-12 09:12:00,56.1,51.1,29.73,NNE,27,5.0,5.0,83,0.00,,,0.01,meteohub,2013-06-12 08:12:00,
2013-06-12 09:17:00,55.6,49.8,29.73,NNE,27,0.0,5.0,81,0.00,,,0.01,meteohub,2013-06-12 08:17:00,
2013-06-12 09:22:00,55.8,49.6,29.73,NNE,27,0.0,5.0,80,0.00,,,0.01,meteohub,2013-06-12 08:22:00,
2013-06-12 09:27:00,55.8,50.7,29.73,NNE,27,0.0,5.0,83,0.00,,,0.01,meteohub,2013-06-12 08:27:00,
2013-06-12 09:32:00,56.5,50.7,29.73,NNE,27,0.0,4.0,81,0.00,,,0.01,meteohub,2013-06-12 08:32:00,
2013-06-12 09:42:00,56.7,50.2,29.74,NNE,29,0.0,5.0,79,0.00,,,0.01,meteohub,2013-06-12 08:42:00,
2013-06-12 09:47:00,56.7,50.2,29.74,NNE,26,2.0,5.0,79,0.00,,,0.01,meteohub,2013-06-12 08:47:00,
2013-06-12 09:52:00,56.3,49.8,29.73,North,0,2.0,5.0,79,0.00,,,0.01,meteohub,2013-06-12 08:52:00,
2013-06-12 09:57:00,56.5,50.0,29.73,North,0,1.0,5.0,79,0.00,,,0.01,meteohub,2013-06-12 08:57:00,
2013-06-12 10:02:00,57.0,50.2,29.73,North,0,2.0,5.0,78,0.00,,,0.01,meteohub,2013-06-12 09:02:00,
2013-06-12 10:07:00,57.4,50.2,29.73,North,0,0.0,5.0,77,0.00,,,0.01,meteohub,2013-06-12 09:07:00,
2013-06-12 10:12:00,56.7,49.1,29.72,North,0,0.0,5.0,76,0.00,,,0.01,meteohub,2013-06-12 09:12:00,
2013-06-12 10:17:00,55.9,49.8,29.72,North,0,0.0,4.0,80,0.00,,,0.01,meteohub,2013-06-12 09:17:00,
2013-06-12 10:22:00,56.5,49.3,29.72,North,0,0.0,2.0,77,0.00,,,0.01,meteohub,2013-06-12 09:22:00,
2013-06-12 10:27:00,57.0,48.7,29.72,North,0,0.0,2.0,74,0.00,,,0.01,meteohub,2013-06-12 09:27:00,
2013-06-12 10:32:00,58.1,50.9,29.72,North,0,0.0,2.0,77,0.00,,,0.01,meteohub,2013-06-12 09:32:00,
2013-06-12 10:37:00,59.2,52.0,29.72,North,0,0.0,2.0,77,0.00,,,0.01,meteohub,2013-06-12 09:37:00,
2013-06-12 10:42:00,60.3,52.7,29.71,North,0,0.0,2.0,76,0.00,,,0.01,meteohub,2013-06-12 09:42:00,
2013-06-12 10:47:00,60.3,51.3,29.71,ENE,64,2.0,2.0,72,0.00,,,0.01,meteohub,2013-06-12 09:47:00,
2013-06-12 10:52:00,58.3,50.0,29.71,ENE,64,0.0,5.0,74,0.00,,,0.01,meteohub,2013-06-12 09:52:00,
2013-06-12 10:57:00,58.6,51.1,29.71,ENE,64,1.0,5.0,76,0.00,,,0.01,meteohub,2013-06-12 09:57:00,
2013-06-12 11:02:00,60.8,53.2,29.71,ENE,64,0.0,5.0,76,0.00,,,0.01,meteohub,2013-06-12 10:02:00,
2013-06-12 11:07:00,60.6,51.1,29.71,ENE,64,2.0,5.0,71,0.00,,,0.01,meteohub,2013-06-12 10:07:00,
2013-06-12 11:12:00,60.6,51.1,29.70,ENE,64,0.0,5.0,71,0.00,,,0.01,meteohub,2013-06-12 10:12:00,
2013-06-12 11:17:00,61.2,50.9,29.70,ENE,64,0.0,6.0,69,0.00,,,0.01,meteohub,2013-06-12 10:17:00,
2013-06-12 11:22:00,61.3,51.1,29.70,ENE,76,0.0,6.0,69,0.00,,,0.01,meteohub,2013-06-12 10:22:00,
2013-06-12 11:27:00,60.6,52.0,29.70,ENE,76,2.0,6.0,73,0.00,,,0.01,meteohub,2013-06-12 10:27:00,
2013-06-12 11:32:00,59.5,50.2,29.70,ENE,76,0.0,6.0,71,0.00,,,0.01,meteohub,2013-06-12 10:32:00,
2013-06-12 11:37:00,61.2,51.6,29.70,ENE,77,2.0,6.0,71,0.00,,,0.01,meteohub,2013-06-12 10:37:00,
2013-06-12 11:42:00,61.2,49.3,29.69,ENE,77,1.0,6.0,65,0.00,,,0.01,meteohub,2013-06-12 10:42:00,
2013-06-12 11:47:00,63.1,52.9,29.69,ESE,112,6.0,6.0,69,0.00,,,0.01,meteohub,2013-06-12 10:47:00,
2013-06-12 11:52:00,63.5,52.0,29.69,East,80,4.0,9.0,66,0.00,,,0.01,meteohub,2013-06-12 10:52:00,
2013-06-12 11:57:00,64.2,52.7,29.69,ESE,112,4.0,9.0,66,0.00,,,0.01,meteohub,2013-06-12 10:57:00,
2013-06-12 12:02:00,63.1,49.5,29.69,ESE,108,0.0,9.0,61,0.00,,,0.01,meteohub,2013-06-12 11:02:00,
2013-06-12 12:07:00,62.2,51.6,29.68,ESE,108,0.0,9.0,68,0.00,,,0.01,meteohub,2013-06-12 11:07:00,
2013-06-12 12:12:00,62.1,51.8,29.68,East,90,6.0,9.0,69,0.00,,,0.01,meteohub,2013-06-12 11:12:00,
2013-06-12 12:17:00,64.9,53.8,29.68,ESE,112,2.0,9.0,67,0.00,,,0.01,meteohub,2013-06-12 11:17:00,
2013-06-12 12:22:00,64.0,51.3,29.68,East,83,2.0,9.0,63,0.00,,,0.01,meteohub,2013-06-12 11:22:00,
2013-06-12 12:27:00,65.1,52.7,29.68,East,83,0.0,10.0,64,0.00,,,0.01,meteohub,2013-06-12 11:27:00,
2013-06-12 12:32:00,65.7,54.0,29.68,ESE,108,9.0,10.0,66,0.00,,,0.01,meteohub,2013-06-12 11:32:00,
2013-06-12 12:37:00,66.6,54.5,29.68,East,96,2.0,10.0,65,0.00,,,0.01,meteohub,2013-06-12 11:37:00,
2013-06-12 12:42:00,65.1,51.3,29.68,SE,124,1.0,11.0,61,0.00,,,0.01,meteohub,2013-06-12 11:42:00,
2013-06-12 12:47:00,66.0,54.0,29.68,ESE,120,4.0,11.0,65,0.00,,,0.01,meteohub,2013-06-12 11:47:00,
2013-06-12 12:52:00,66.7,54.1,29.67,ESE,117,4.0,11.0,64,0.00,,,0.01,meteohub,2013-06-12 11:52:00,
2013-06-12 12:57:00,65.5,53.4,29.67,SE,125,8.0,11.0,65,0.00,,,0.01,meteohub,2013-06-12 11:57:00,
2013-06-12 13:02:00,64.8,51.8,29.67,ESE,112,1.0,11.0,63,0.00,,,0.01,meteohub,2013-06-12 12:02:00,
2013-06-12 13:07:00,65.1,53.4,29.67,East,82,4.0,11.0,66,0.00,,,0.01,meteohub,2013-06-12 12:07:00,
2013-06-12 13:12:00,65.5,52.5,29.67,East,84,6.0,11.0,63,0.00,,,0.01,meteohub,2013-06-12 12:12:00,
2013-06-12 13:17:00,65.5,52.5,29.67,ESE,116,2.0,11.0,63,0.00,,,0.01,meteohub,2013-06-12 12:17:00,
2013-06-12 13:22:00,66.7,54.7,29.66,SE,125,5.0,10.0,65,0.00,,,0.01,meteohub,2013-06-12 12:22:00,
2013-06-12 13:27:00,66.0,52.7,29.66,East,82,1.0,13.0,62,0.00,,,0.01,meteohub,2013-06-12 12:27:00,
2013-06-12 13:32:00,66.2,54.1,29.66,ESE,123,5.0,13.0,65,0.00,,,0.01,meteohub,2013-06-12 12:32:00,
2013-06-12 13:37:00,66.9,54.9,29.65,East,101,6.0,13.0,65,0.00,,,0.01,meteohub,2013-06-12 12:37:00,
2013-06-12 13:42:00,67.8,55.2,29.65,East,86,6.0,13.0,64,0.00,,,0.01,meteohub,2013-06-12 12:42:00,
2013-06-12 13:47:00,65.7,52.7,29.65,ESE,120,6.0,13.0,63,0.00,,,0.01,meteohub,2013-06-12 12:47:00,
2013-06-12 13:52:00,65.7,54.0,29.65,ESE,119,10.0,13.0,66,0.00,,,0.01,meteohub,2013-06-12 12:52:00,
2013-06-12 13:57:00,64.9,52.9,29.65,ESE,123,6.0,13.0,65,0.00,,,0.01,meteohub,2013-06-12 12:57:00,
2013-06-12 14:02:00,64.2,52.7,29.65,ESE,107,5.0,14.0,66,0.00,,,0.01,meteohub,2013-06-12 13:02:00,
2013-06-12 14:07:00,63.9,52.7,29.65,SSE,152,1.0,14.0,67,0.00,,,0.01,meteohub,2013-06-12 13:07:00,
2013-06-12 14:12:00,63.7,52.5,29.65,SE,129,2.0,14.0,67,0.00,,,0.01,meteohub,2013-06-12 13:12:00,
2013-06-12 14:17:00,63.3,52.2,29.65,ESE,107,5.0,15.0,67,0.00,,,0.01,meteohub,2013-06-12 13:17:00,
2013-06-12 14:22:00,63.0,52.2,29.65,ESE,123,10.0,15.0,68,0.00,,,0.01,meteohub,2013-06-12 13:22:00,
2013-06-12 14:27:00,62.4,52.2,29.65,ESE,119,6.0,15.0,69,0.00,,,0.01,meteohub,2013-06-12 13:27:00,
2013-06-12 14:32:00,62.2,52.3,29.65,SE,125,4.0,11.0,70,0.00,,,0.01,meteohub,2013-06-12 13:32:00,
2013-06-12 14:37:00,62.1,52.2,29.65,ESE,107,9.0,11.0,70,0.00,,,0.01,meteohub,2013-06-12 13:37:00,
2013-06-12 14:42:00,61.5,51.6,29.64,ESE,121,5.0,11.0,70,0.00,,,0.01,meteohub,2013-06-12 13:42:00,
2013-06-12 14:47:00,61.2,52.0,29.64,ESE,115,2.0,10.0,72,0.00,,,0.01,meteohub,2013-06-12 13:47:00,
2013-06-12 14:52:00,60.6,52.3,29.64,ESE,123,5.0,10.0,74,0.00,,,0.01,meteohub,2013-06-12 13:52:00,
2013-06-12 14:57:00,59.9,52.0,29.64,SE,131,5.0,11.0,75,0.00,,,0.01,meteohub,2013-06-12 13:57:00,
2013-06-12 15:02:00,59.4,52.2,29.64,ESE,113,4.0,11.0,77,0.01,,,0.02,meteohub,2013-06-12 14:02:00,
2013-06-12 15:07:00,58.6,52.5,29.64,ESE,119,5.0,11.0,80,0.02,,,0.02,meteohub,2013-06-12 14:07:00,
2013-06-12 15:12:00,58.3,53.1,29.64,SE,124,6.0,10.0,83,0.03,,,0.04,meteohub,2013-06-12 14:12:00,
2013-06-12 15:17:00,57.6,53.1,29.64,SE,126,1.0,10.0,85,0.04,,,0.05,meteohub,2013-06-12 14:17:00,
2013-06-12 15:22:00,57.4,53.6,29.64,SE,126,4.0,10.0,87,0.06,,,0.07,meteohub,2013-06-12 14:22:00,
2013-06-12 15:27:00,57.2,53.6,29.64,SE,126,0.0,9.0,88,0.09,,,0.09,meteohub,2013-06-12 14:27:00,
2013-06-12 15:32:00,57.2,54.0,29.64,SE,126,1.0,6.0,89,0.10,,,0.11,meteohub,2013-06-12 14:32:00,
2013-06-12 15:37:00,57.0,54.1,29.63,SE,126,0.0,4.0,90,0.13,,,0.13,meteohub,2013-06-12 14:37:00,
2013-06-12 15:42:00,57.4,54.9,29.64,SE,126,0.0,4.0,91,0.13,,,0.14,meteohub,2013-06-12 14:42:00,
2013-06-12 15:47:00,57.0,54.1,29.63,SE,126,1.0,4.0,90,0.13,,,0.14,meteohub,2013-06-12 14:47:00,
2013-06-12 15:52:00,57.0,54.5,29.63,SE,126,0.0,4.0,91,0.14,,,0.15,meteohub,2013-06-12 14:52:00,
2013-06-12 15:57:00,57.4,54.9,29.63,SE,126,0.0,4.0,91,0.15,,,0.17,meteohub,2013-06-12 14:57:00,
2013-06-12 16:02:00,57.6,55.0,29.63,SE,126,0.0,2.0,91,0.16,,,0.17,meteohub,2013-06-12 15:02:00,
2013-06-12 16:07:00,57.9,55.6,29.62,ESE,105,4.0,4.0,92,0.15,,,0.18,meteohub,2013-06-12 15:07:00,
2013-06-12 16:12:00,58.1,55.8,29.62,East,88,2.0,4.0,92,0.15,,,0.19,meteohub,2013-06-12 15:12:00,
2013-06-12 16:17:00,58.3,55.9,29.62,East,88,1.0,6.0,92,0.13,,,0.19,meteohub,2013-06-12 15:17:00,
2013-06-12 16:22:00,58.5,56.1,29.62,East,88,2.0,6.0,92,0.11,,,0.19,meteohub,2013-06-12 15:22:00,
2013-06-12 16:27:00,58.5,56.1,29.62,ENE,74,4.0,4.0,92,0.09,,,0.19,meteohub,2013-06-12 15:27:00,
2013-06-12 16:32:00,58.5,56.1,29.62,ENE,74,1.0,6.0,92,0.06,,,0.19,meteohub,2013-06-12 15:32:00,
2013-06-12 16:37:00,58.5,55.8,29.62,ENE,74,4.0,6.0,91,0.06,,,0.20,meteohub,2013-06-12 15:37:00,
2013-06-12 16:42:00,58.5,55.8,29.61,ENE,74,4.0,5.0,91,0.06,,,0.20,meteohub,2013-06-12 15:42:00,
2013-06-12 16:47:00,58.6,55.9,29.61,ENE,74,2.0,6.0,91,0.06,,,0.20,meteohub,2013-06-12 15:47:00,
2013-06-12 16:52:00,59.0,56.3,29.61,ENE,67,0.0,6.0,91,0.06,,,0.20,meteohub,2013-06-12 15:52:00,
2013-06-12 16:57:00,59.4,56.7,29.61,ENE,67,0.0,6.0,91,0.04,,,0.20,meteohub,2013-06-12 15:57:00,
2013-06-12 17:02:00,59.2,56.5,29.61,ENE,67,4.0,5.0,91,0.02,,,0.20,meteohub,2013-06-12 16:02:00,
2013-06-12 17:07:00,59.0,56.1,29.61,ENE,68,1.0,6.0,90,0.02,,,0.20,meteohub,2013-06-12 16:07:00,
2013-06-12 17:12:00,59.2,56.3,29.61,NE,40,5.0,6.0,90,0.02,,,0.20,meteohub,2013-06-12 16:12:00,
2013-06-12 17:17:00,59.0,56.1,29.61,NNE,33,2.0,6.0,90,0.02,,,0.20,meteohub,2013-06-12 16:17:00,
2013-06-12 17:22:00,59.2,56.3,29.61,ENE,69,2.0,6.0,90,0.02,,,0.20,meteohub,2013-06-12 16:22:00,
2013-06-12 17:27:00,58.8,55.9,29.60,ENE,66,2.0,6.0,90,0.02,,,0.20,meteohub,2013-06-12 16:27:00,
2013-06-12 17:32:00,58.8,55.9,29.60,ENE,64,5.0,5.0,90,0.02,,,0.20,meteohub,2013-06-12 16:32:00,
2013-06-12 17:37:00,58.8,55.9,29.60,NNE,31,2.0,5.0,90,0.01,,,0.20,meteohub,2013-06-12 16:37:00,
2013-06-12 17:42:00,59.2,56.3,29.59,NNE,30,2.0,8.0,90,0.01,,,0.20,meteohub,2013-06-12 16:42:00,
2013-06-12 17:47:00,59.2,56.3,29.59,NE,40,2.0,8.0,90,0.01,,,0.20,meteohub,2013-06-12 16:47:00,
2013-06-12 17:52:00,59.2,56.3,29.58,NE,42,4.0,8.0,90,0.00,,,0.20,meteohub,2013-06-12 16:52:00,
2013-06-12 17:57:00,59.2,56.3,29.58,NE,53,4.0,9.0,90,0.00,,,0.20,meteohub,2013-06-12 16:57:00,
2013-06-12 18:02:00,59.4,56.5,29.58,North,355,2.0,9.0,90,0.00,,,0.20,meteohub,2013-06-12 17:02:00,
2013-06-12 18:07:00,59.2,55.9,29.58,NE,38,6.0,11.0,89,0.00,,,0.20,meteohub,2013-06-12 17:07:00,
2013-06-12 18:12:00,59.2,55.9,29.58,ENE,71,5.0,11.0,89,0.00,,,0.20,meteohub,2013-06-12 17:12:00,
2013-06-12 18:17:00,59.0,55.4,29.58,NNE,25,5.0,11.0,88,0.00,,,0.20,meteohub,2013-06-12 17:17:00,
2013-06-12 18:22:00,59.4,55.8,29.57,NE,49,4.0,10.0,88,0.00,,,0.20,meteohub,2013-06-12 17:22:00,
2013-06-12 18:27:00,59.2,55.6,29.57,NE,34,1.0,10.0,88,0.00,,,0.20,meteohub,2013-06-12 17:27:00,
2013-06-12 18:37:00,59.2,55.6,29.57,ENE,63,4.0,10.0,88,0.00,,,0.20,meteohub,2013-06-12 17:37:00,
2013-06-12 18:42:00,58.8,55.2,29.57,East,90,1.0,10.0,88,0.00,,,0.20,meteohub,2013-06-12 17:42:00,
2013-06-12 18:47:00,58.8,55.2,29.57,East,80,2.0,10.0,88,0.00,,,0.20,meteohub,2013-06-12 17:47:00,
2013-06-12 18:52:00,58.6,55.0,29.57,NE,42,4.0,10.0,88,0.00,,,0.20,meteohub,2013-06-12 17:52:00,
2013-06-12 18:57:00,58.6,55.0,29.57,ENE,76,0.0,10.0,88,0.00,,,0.20,meteohub,2013-06-12 17:57:00,
2013-06-12 19:02:00,58.5,54.9,29.57,East,80,4.0,10.0,88,0.00,,,0.20,meteohub,2013-06-12 18:02:00,
2013-06-12 19:07:00,58.3,54.7,29.57,East,80,2.0,9.0,88,0.00,,,0.20,meteohub,2013-06-12 18:07:00,
2013-06-12 19:12:00,58.3,55.0,29.57,ENE,68,5.0,9.0,89,0.00,,,0.20,meteohub,2013-06-12 18:12:00,
2013-06-12 19:17:00,58.5,55.6,29.58,ENE,76,5.0,9.0,90,0.00,,,0.20,meteohub,2013-06-12 18:17:00,
2013-06-12 19:22:00,58.3,55.4,29.57,ENE,68,5.0,9.0,90,0.00,,,0.20,meteohub,2013-06-12 18:22:00,
2013-06-12 19:27:00,58.1,55.2,29.57,ENE,67,4.0,10.0,90,0.01,,,0.21,meteohub,2013-06-12 18:27:00,
2013-06-12 19:32:00,58.3,55.4,29.57,ENE,66,4.0,10.0,90,0.01,,,0.21,meteohub,2013-06-12 18:32:00,
2013-06-12 19:37:00,58.3,55.4,29.57,East,84,0.0,10.0,90,0.01,,,0.21,meteohub,2013-06-12 18:37:00,
2013-06-12 19:42:00,58.1,55.4,29.57,ENE,76,4.0,10.0,91,0.01,,,0.21,meteohub,2013-06-12 18:42:00,
2013-06-12 19:47:00,57.7,55.2,29.57,ENE,73,4.0,8.0,91,0.01,,,0.21,meteohub,2013-06-12 18:47:00,
2013-06-12 19:52:00,57.6,54.7,29.57,ENE,72,1.0,13.0,90,0.01,,,0.21,meteohub,2013-06-12 18:52:00,
2013-06-12 19:57:00,57.0,54.1,29.57,East,82,9.0,13.0,90,0.01,,,0.21,meteohub,2013-06-12 18:57:00,
2013-06-12 20:02:00,57.0,54.1,29.57,ENE,63,2.0,13.0,90,0.01,,,0.21,meteohub,2013-06-12 19:02:00,
2013-06-12 20:07:00,57.2,54.7,29.57,ENE,74,1.0,10.0,91,0.01,,,0.21,meteohub,2013-06-12 19:07:00,
2013-06-12 20:12:00,57.2,54.7,29.57,East,81,6.0,9.0,91,0.01,,,0.21,meteohub,2013-06-12 19:12:00,
2013-06-12 20:17:00,57.0,54.7,29.57,ENE,77,4.0,9.0,92,0.01,,,0.21,meteohub,2013-06-12 19:17:00,
2013-06-12 20:22:00,56.8,54.5,29.57,ENE,78,6.0,9.0,92,0.01,,,0.21,meteohub,2013-06-12 19:22:00,
2013-06-12 20:27:00,56.7,54.3,29.57,ENE,65,1.0,10.0,92,0.00,,,0.21,meteohub,2013-06-12 19:27:00,
2013-06-12 20:32:00,56.5,54.1,29.57,ENE,65,4.0,11.0,92,0.00,,,0.21,meteohub,2013-06-12 19:32:00,
2013-06-12 20:37:00,56.5,54.1,29.57,East,79,6.0,11.0,92,0.00,,,0.21,meteohub,2013-06-12 19:37:00,
2013-06-12 20:42:00,56.5,54.1,29.58,ENE,64,1.0,11.0,92,0.00,,,0.21,meteohub,2013-06-12 19:42:00,
2013-06-12 20:47:00,56.3,54.0,29.58,NE,41,4.0,10.0,92,0.00,,,0.21,meteohub,2013-06-12 19:47:00,
2013-06-12 20:52:00,56.1,53.8,29.57,NNE,30,4.0,9.0,92,0.00,,,0.21,meteohub,2013-06-12 19:52:00,
2013-06-12 20:57:00,56.1,53.8,29.58,NNE,22,5.0,9.0,92,0.00,,,0.21,meteohub,2013-06-12 19:57:00,
2013-06-12 21:02:00,55.9,53.6,29.57,NE,40,5.0,9.0,92,0.00,,,0.21,meteohub,2013-06-12 20:02:00,
2013-06-12 21:07:00,55.9,54.0,29.58,NE,39,2.0,9.0,93,0.00,,,0.21,meteohub,2013-06-12 20:07:00,
2013-06-12 21:12:00,55.8,53.8,29.58,NNE,29,2.0,9.0,93,0.00,,,0.21,meteohub,2013-06-12 20:12:00,
2013-06-12 21:17:00,55.8,53.8,29.58,NNE,29,2.0,6.0,93,0.00,,,0.21,meteohub,2013-06-12 20:17:00,
2013-06-12 21:22:00,55.8,53.8,29.58,NE,50,1.0,6.0,93,0.00,,,0.21,meteohub,2013-06-12 20:22:00,
2013-06-12 21:27:00,55.6,53.6,29.58,NNE,30,9.0,9.0,93,0.01,,,0.22,meteohub,2013-06-12 20:27:00,
2013-06-12 21:32:00,55.2,53.2,29.58,NE,46,5.0,9.0,93,0.01,,,0.22,meteohub,2013-06-12 20:32:00,
2013-06-12 21:37:00,55.2,53.2,29.58,NE,42,2.0,9.0,93,0.02,,,0.23,meteohub,2013-06-12 20:37:00,
2013-06-12 21:42:00,55.0,53.1,29.58,NE,40,4.0,9.0,93,0.02,,,0.23,meteohub,2013-06-12 20:42:00,
2013-06-12 21:47:00,55.0,53.4,29.58,NE,47,5.0,9.0,94,0.02,,,0.23,meteohub,2013-06-12 20:47:00,
2013-06-12 21:52:00,54.9,53.2,29.58,NE,40,4.0,9.0,94,0.02,,,0.23,meteohub,2013-06-12 20:52:00,
2013-06-12 21:57:00,54.9,53.2,29.58,NNE,21,2.0,9.0,94,0.02,,,0.23,meteohub,2013-06-12 20:57:00,
2013-06-12 22:02:00,54.9,53.2,29.59,NE,37,4.0,9.0,94,0.02,,,0.23,meteohub,2013-06-12 21:02:00,
2013-06-12 22:07:00,55.0,53.4,29.59,NE,34,4.0,8.0,94,0.02,,,0.23,meteohub,2013-06-12 21:07:00,
2013-06-12 22:12:00,55.0,53.4,29.59,NE,37,4.0,8.0,94,0.02,,,0.23,meteohub,2013-06-12 21:12:00,
2013-06-12 22:17:00,55.0,53.4,29.59,NE,40,2.0,8.0,94,0.02,,,0.23,meteohub,2013-06-12 21:17:00,
2013-06-12 22:22:00,55.0,53.4,29.59,NE,40,2.0,6.0,94,0.01,,,0.23,meteohub,2013-06-12 21:22:00,
2013-06-12 22:27:00,55.2,53.6,29.59,North,11,6.0,6.0,94,0.01,,,0.23,meteohub,2013-06-12 21:27:00,
2013-06-12 22:32:00,55.0,53.4,29.59,NE,44,4.0,9.0,94,0.01,,,0.23,meteohub,2013-06-12 21:32:00,
2013-06-12 22:37:00,55.0,53.4,29.59,NE,40,4.0,10.0,94,0.00,,,0.23,meteohub,2013-06-12 21:37:00,
2013-06-12 22:42:00,54.9,53.2,29.60,NE,41,1.0,10.0,94,0.00,,,0.23,meteohub,2013-06-12 21:42:00,
2013-06-12 22:47:00,55.0,53.4,29.59,NNE,13,2.0,10.0,94,0.00,,,0.23,meteohub,2013-06-12 21:47:00,
2013-06-12 22:52:00,55.0,53.4,29.59,NNE,19,0.0,6.0,94,0.00,,,0.23,meteohub,2013-06-12 21:52:00,
2013-06-12 22:57:00,55.2,53.6,29.59,NNE,17,5.0,5.0,94,0.00,,,0.23,meteohub,2013-06-12 21:57:00,
2013-06-12 23:02:00,55.0,53.4,29.59,North,355,8.0,9.0,94,0.00,,,0.23,meteohub,2013-06-12 22:02:00,
2013-06-12 23:07:00,55.0,53.4,29.59,North,355,4.0,11.0,94,0.00,,,0.23,meteohub,2013-06-12 22:07:00,
2013-06-12 23:12:00,55.2,53.6,29.59,North,355,4.0,11.0,94,0.00,,,0.23,meteohub,2013-06-12 22:12:00,
2013-06-12 23:17:00,55.0,53.4,29.59,North,355,4.0,11.0,94,0.00,,,0.23,meteohub,2013-06-12 22:17:00,
2013-06-12 23:22:00,55.0,53.4,29.59,NNW,339,8.0,10.0,94,0.00,,,0.23,meteohub,2013-06-12 22:22:00,
2013-06-12 23:27:00,55.0,53.4,29.59,NW,326,4.0,9.0,94,0.01,,,0.24,meteohub,2013-06-12 22:27:00,
2013-06-12 23:32:00,55.0,53.4,29.60,North,355,6.0,10.0,94,0.01,,,0.24,meteohub,2013-06-12 22:32:00,
2013-06-12 23:37:00,55.0,53.4,29.60,NNW,340,6.0,10.0,94,0.01,,,0.24,meteohub,2013-06-12 22:37:00,
2013-06-12 23:42:00,54.9,52.9,29.60,NW,321,11.0,13.0,93,0.01,,,0.24,meteohub,2013-06-12 22:42:00,
2013-06-12 23:47:00,54.9,52.9,29.60,North,355,6.0,13.0,93,0.01,,,0.24,meteohub,2013-06-12 22:47:00,
2013-06-12 23:52:00,54.9,52.9,29.60,WNW,289,4.0,13.0,93,0.01,,,0.24,meteohub,2013-06-12 22:52:00,
2013-06-12 23:57:00,54.9,52.9,29.60,NNW,341,6.0,13.0,93,0.01,,,0.24,meteohub,2013-06-12 22:57:00,